Time;durP1;ratioP1;P1;durP2;ratioP2;P2;SDS_P1;SDS_P2;PMS_P1;PMS_P2;Temp;Humidity;BMP_temperature;BMP_pressure;BME280_temperature;BME280_humidity;BME280_pressure;Samples;Min_cycle;Max_cycle;Signal;HPM_P1;HPM_P2
2021/12/31 00:01:47;;;;;;;115.85;61.83;;;154.40;2252.80;;;;;;5076615;28;20033;-58
2021/12/31 00:04:13;;;;;;;131.65;64.13;;;154.40;2252.80;;;;;;5076552;28;20037;-58
2021/12/31 00:06:42;;;;;;;125.75;66.45;;;154.40;2252.80;;;;;;5075979;28;20389;-58
2021/12/31 00:09:07;;;;;;;107.20;56.88;;;154.40;2252.80;;;;;;5076192;28;20111;-63
2021/12/31 00:11:35;;;;;;;113.10;56.75;;;154.40;2252.80;;;;;;5076440;28;20052;-58
2021/12/31 00:14:02;;;;;;;108.70;53.95;;;154.40;2252.80;;;;;;5076471;28;20105;-64
2021/12/31 00:16:28;;;;;;;114.07;57.38;;;154.40;2252.80;;;;;;5076203;28;20021;-57
2021/12/31 00:18:53;;;;;;;114.07;55.42;;;154.30;2252.80;;;;;;5076002;28;20078;-58
2021/12/31 00:21:20;;;;;;;113.13;55.38;;;154.40;2252.80;;;;;;5075940;28;20024;-61
2021/12/31 00:23:46;;;;;;;108.60;56.90;;;154.40;2252.80;;;;;;5075866;28;20050;-64
2021/12/31 00:26:12;;;;;;;104.07;53.45;;;154.40;2252.80;;;;;;5075929;28;20024;-58
2021/12/31 00:28:38;;;;;;;109.75;54.47;;;154.40;2252.80;;;;;;5076209;28;20522;-57
2021/12/31 00:31:04;;;;;;;106.50;55.63;;;154.40;2252.80;;;;;;5075668;28;20120;-57
2021/12/31 00:33:30;;;;;;;104.93;55.60;;;154.50;2252.80;;;;;;5075762;28;20031;-58
2021/12/31 00:35:56;;;;;;;115.03;56.50;;;179.20;2252.80;;;;;;5075759;28;20107;-57
2021/12/31 00:38:22;;;;;;;104.97;55.45;;;179.20;2252.80;;;;;;5076017;28;20048;-57
2021/12/31 00:40:48;;;;;;;99.60;56.15;;;179.30;2252.80;;;;;;5075922;28;20029;-56
2021/12/31 00:43:14;;;;;;;110.10;59.08;;;179.30;2252.80;;;;;;5075643;28;20085;-56
2021/12/31 00:45:41;;;;;;;107.65;57.75;;;179.20;2252.80;;;;;;5075595;28;20052;-59
2021/12/31 00:48:09;;;;;;;106.70;56.75;;;179.20;2252.80;;;;;;5075800;28;20037;-56
2021/12/31 00:50:37;;;;;;;121.88;63.58;;;179.20;2252.80;;;;;;5075505;28;20028;-56
2021/12/31 00:53:04;;;;;;;110.45;57.90;;;179.20;2252.80;;;;;;5075396;28;20119;-56
2021/12/31 00:55:30;;;;;;;114.25;56.60;;;179.20;2252.80;;;;;;5075424;28;20028;-57
2021/12/31 00:57:56;;;;;;;105.45;54.33;;;179.20;2252.80;;;;;;5075328;28;20024;-56
2021/12/31 01:00:22;;;;;;;105.13;55.65;;;179.20;2252.80;;;;;;5074419;28;20493;-56
2021/12/31 01:02:48;;;;;;;110.72;58.88;;;179.20;2252.80;;;;;;5075427;28;20020;-56
2021/12/31 01:05:15;;;;;;;108.93;59.92;;;179.30;2252.80;;;;;;5075215;28;20362;-56
2021/12/31 01:07:42;;;;;;;109.88;60.70;;;179.40;2252.80;;;;;;5075421;28;20381;-62
2021/12/31 01:10:14;;;;;;;97.80;55.17;;;179.40;2252.80;;;;;;5075077;28;20031;-56
2021/12/31 01:12:40;;;;;;;97.15;53.67;;;179.40;2252.80;;;;;;5075098;28;20032;-56
2021/12/31 01:15:11;;;;;;;98.63;54.55;;;179.30;2252.80;;;;;;5074981;28;20509;-56
2021/12/31 01:20:05;;;;;;;94.45;53.22;;;179.20;2252.80;;;;;;5074945;28;20492;-56
2021/12/31 01:22:33;;;;;;;104.95;57.15;;;179.20;2252.80;;;;;;5074797;28;20028;-57
2021/12/31 01:24:59;;;;;;;100.93;57.80;;;179.20;2252.80;;;;;;5074724;28;20066;-57
2021/12/31 01:27:26;;;;;;;100.35;56.50;;;179.20;2252.80;;;;;;5074996;28;20032;-62
2021/12/31 01:29:51;;;;;;;100.82;55.72;;;179.20;2252.80;;;;;;5075067;28;20063;-57
2021/12/31 01:32:18;;;;;;;88.18;51.90;;;179.20;2252.80;;;;;;5074469;28;20049;-56
2021/12/31 01:34:44;;;;;;;88.45;51.15;;;179.30;2252.80;;;;;;5074566;28;20025;-63
2021/12/31 01:37:10;;;;;;;89.40;51.72;;;179.30;2252.80;;;;;;5074612;28;20099;-63
2021/12/31 01:39:37;;;;;;;83.22;48.22;;;179.30;2252.80;;;;;;5073228;28;20591;-57
2021/12/31 01:42:07;;;;;;;80.97;47.60;;;179.30;2252.80;;;;;;5074809;28;20134;-56
2021/12/31 01:44:40;;;;;;;81.63;48.47;;;179.30;2252.80;;;;;;5074660;28;20024;-56
2021/12/31 01:47:11;;;;;;;81.38;48.20;;;179.30;2252.80;;;;;;5074394;28;20500;-56
2021/12/31 01:49:40;;;;;;;79.13;45.83;;;179.20;2252.80;;;;;;5074923;28;20028;-57
2021/12/31 01:52:08;;;;;;;80.50;47.33;;;179.20;2252.80;;;;;;5074841;28;20028;-56
2021/12/31 01:54:36;;;;;;;82.45;49.03;;;179.20;2252.80;;;;;;5074214;28;20086;-56
2021/12/31 01:57:05;;;;;;;82.15;46.83;;;179.20;2252.80;;;;;;5074483;28;20039;-57
2021/12/31 01:59:35;;;;;;;76.47;44.50;;;179.30;2252.80;;;;;;5074677;28;20488;-57
2021/12/31 02:02:01;;;;;;;77.22;44.85;;;179.20;2252.80;;;;;;5074392;28;20021;-58
2021/12/31 02:04:29;;;;;;;80.60;47.08;;;179.30;2252.80;;;;;;5074504;28;20495;-58
2021/12/31 02:06:57;;;;;;;75.30;44.45;;;179.30;2252.80;;;;;;5073994;28;20056;-58
2021/12/31 02:09:23;;;;;;;79.35;44.28;;;179.30;2252.80;;;;;;5073945;28;20393;-58
2021/12/31 02:11:49;;;;;;;80.82;46.13;;;179.20;2252.80;;;;;;5073839;28;20133;-58
2021/12/31 02:14:15;;;;;;;79.47;44.65;;;154.50;2252.80;;;;;;5073847;28;20060;-58
2021/12/31 02:16:41;;;;;;;78.47;44.55;;;179.20;2252.80;;;;;;5073994;28;20064;-64
2021/12/31 02:19:15;;;;;;;80.05;45.92;;;179.20;2252.80;;;;;;5074054;28;20064;-61
2021/12/31 02:21:44;;;;;;;88.47;49.67;;;179.20;2252.80;;;;;;5073790;28;20107;-64
2021/12/31 02:24:12;;;;;;;83.43;46.78;;;154.50;2252.80;;;;;;5073626;28;20040;-58
2021/12/31 02:26:38;;;;;;;88.80;49.10;;;154.40;2252.80;;;;;;5073945;28;20450;-57
2021/12/31 02:29:04;;;;;;;86.32;49.03;;;154.40;2252.80;;;;;;5074171;28;20059;-64
2021/12/31 02:31:30;;;;;;;94.00;51.65;;;154.40;2252.80;;;;;;5073348;28;20048;-57
2021/12/31 02:33:56;;;;;;;90.45;49.17;;;154.30;2252.80;;;;;;5073869;28;20036;-58
2021/12/31 02:36:22;;;;;;;105.30;54.17;;;154.30;2252.80;;;;;;5073828;28;20024;-57
2021/12/31 02:38:49;;;;;;;99.40;52.50;;;154.30;2252.80;;;;;;5073569;28;20077;-58
2021/12/31 02:41:16;;;;;;;92.53;49.47;;;154.30;2252.80;;;;;;5073459;28;20473;-58
2021/12/31 02:43:42;;;;;;;87.93;49.22;;;154.30;2252.80;;;;;;5073653;28;20032;-64
2021/12/31 02:46:08;;;;;;;84.78;48.60;;;154.30;2252.80;;;;;;5074091;28;20382;-57
2021/12/31 02:48:34;;;;;;;90.35;48.72;;;154.30;2252.80;;;;;;5073318;28;20040;-58
2021/12/31 02:51:01;;;;;;;97.45;49.97;;;154.20;2252.80;;;;;;5073456;28;20024;-58
2021/12/31 02:53:41;;;;;;;94.47;49.47;;;154.20;2252.80;;;;;;5073369;28;20054;-58
2021/12/31 02:56:10;;;;;;;98.78;49.30;;;154.20;2252.80;;;;;;5073389;28;20024;-58
2021/12/31 02:58:36;;;;;;;90.38;48.90;;;154.20;2252.80;;;;;;5073563;28;20583;-57
2021/12/31 03:01:04;;;;;;;90.30;49.85;;;154.20;2252.80;;;;;;5073618;28;20392;-58
2021/12/31 03:03:32;;;;;;;102.05;55.97;;;154.10;2252.80;;;;;;5073164;28;20044;-58
2021/12/31 03:05:59;;;;;;;93.45;50.00;;;154.20;2252.80;;;;;;5073175;28;20025;-58
2021/12/31 03:08:30;;;;;;;87.00;47.65;;;154.10;2252.80;;;;;;5073213;28;20124;-58
2021/12/31 03:10:57;;;;;;;75.40;44.08;;;154.10;2252.80;;;;;;5073693;28;20058;-58
2021/12/31 03:13:23;;;;;;;90.35;47.65;;;154.10;2252.80;;;;;;5073133;28;20032;-58
2021/12/31 03:15:52;;;;;;;91.88;50.53;;;154.00;2252.80;;;;;;5073186;28;20055;-58
2021/12/31 03:18:19;;;;;;;99.05;52.40;;;154.00;2252.80;;;;;;5073421;28;20431;-58
2021/12/31 03:20:57;;;;;;;104.50;56.03;;;154.00;2252.80;;;;;;5073384;28;20029;-64
2021/12/31 03:23:29;;;;;;;120.03;58.42;;;154.10;2252.80;;;;;;5073540;28;20045;-58
2021/12/31 03:25:55;;;;;;;119.22;67.90;;;154.00;2252.80;;;;;;5077341;28;20350;-58
2021/12/31 03:28:21;;;;;;;123.30;70.13;;;154.10;2252.80;;;;;;5077333;28;20052;-57
2021/12/31 03:30:48;;;;;;;109.88;61.40;;;154.10;2252.80;;;;;;5076763;28;20497;-58
2021/12/31 03:33:14;;;;;;;105.28;61.25;;;154.10;2252.80;;;;;;5076966;28;20035;-58
2021/12/31 03:35:41;;;;;;;124.70;67.25;;;154.10;2252.80;;;;;;5077180;28;20025;-61
2021/12/31 03:38:07;;;;;;;108.95;57.50;;;154.10;2252.80;;;;;;5077100;28;20028;-58
2021/12/31 03:40:33;;;;;;;98.15;53.42;;;154.00;2252.80;;;;;;5076795;28;20028;-57
2021/12/31 03:43:00;;;;;;;95.47;53.17;;;153.90;2252.80;;;;;;5076381;28;20035;-64
2021/12/31 03:45:26;;;;;;;103.15;55.63;;;153.90;2252.80;;;;;;5076199;28;20052;-58
2021/12/31 03:47:52;;;;;;;91.45;52.78;;;153.90;2252.80;;;;;;5076643;28;20024;-58
2021/12/31 03:50:18;;;;;;;93.07;52.50;;;153.90;2252.80;;;;;;5076913;28;20094;-58
2021/12/31 03:52:44;;;;;;;85.07;51.10;;;154.00;2252.80;;;;;;5077316;28;20040;-58
2021/12/31 03:55:11;;;;;;;81.43;48.35;;;154.00;2252.80;;;;;;5076816;28;20027;-58
2021/12/31 03:57:38;;;;;;;85.28;49.50;;;154.10;2252.80;;;;;;5076747;28;20471;-57
2021/12/31 04:00:06;;;;;;;83.75;48.75;;;154.10;2252.80;;;;;;5076437;28;20059;-57
2021/12/31 04:02:32;;;;;;;83.85;48.33;;;154.10;2252.80;;;;;;5076241;28;20027;-58
2021/12/31 04:04:58;;;;;;;85.70;50.40;;;154.20;2252.80;;;;;;5076269;28;20477;-57
2021/12/31 04:07:24;;;;;;;86.88;49.97;;;154.10;2252.80;;;;;;5076521;28;20048;-58
2021/12/31 04:09:50;;;;;;;97.32;61.03;;;154.20;2252.80;;;;;;5076338;28;20520;-63
2021/12/31 04:12:16;;;;;;;109.32;67.38;;;154.20;2252.80;;;;;;5076033;28;20025;-65
2021/12/31 04:14:42;;;;;;;96.22;58.10;;;154.20;2252.80;;;;;;5075965;28;20032;-64
2021/12/31 04:17:08;;;;;;;101.55;59.70;;;154.20;2252.80;;;;;;5075963;28;20028;-58
2021/12/31 04:19:34;;;;;;;104.00;59.72;;;154.30;2252.80;;;;;;5076553;28;20021;-64
2021/12/31 04:22:00;;;;;;;105.32;58.85;;;154.30;2252.80;;;;;;5075841;28;20032;-57
2021/12/31 04:27:07;;;;;;;105.82;59.83;;;154.30;2252.80;;;;;;5075899;28;20021;-64
2021/12/31 04:29:33;;;;;;;104.10;58.92;;;154.40;2252.80;;;;;;5076220;28;20112;-58
2021/12/31 04:32:00;;;;;;;112.85;61.42;;;154.40;2252.80;;;;;;5075690;28;20140;-57
2021/12/31 04:34:27;;;;;;;104.17;59.43;;;154.30;2252.80;;;;;;5075296;28;20034;-57
2021/12/31 04:36:53;;;;;;;104.35;57.92;;;154.30;2252.80;;;;;;5074938;28;20025;-58
2021/12/31 04:39:20;;;;;;;100.18;57.83;;;154.20;2252.80;;;;;;5075756;28;20021;-58
2021/12/31 04:41:46;;;;;;;97.72;56.40;;;154.20;2252.80;;;;;;5075656;28;20027;-64
2021/12/31 04:44:12;;;;;;;94.40;54.10;;;154.20;2252.80;;;;;;5076392;28;20461;-58
2021/12/31 04:46:38;;;;;;;92.45;54.83;;;154.30;2252.80;;;;;;5075554;28;20130;-58
2021/12/31 04:49:06;;;;;;;99.40;55.65;;;154.30;2252.80;;;;;;5075517;28;20073;-64
2021/12/31 04:51:32;;;;;;;94.55;54.58;;;154.30;2252.80;;;;;;5075824;28;20432;-60
2021/12/31 04:53:58;;;;;;;96.63;53.67;;;154.30;2252.80;;;;;;5075448;28;20040;-58
2021/12/31 04:56:24;;;;;;;92.57;50.95;;;154.30;2252.80;;;;;;5075471;28;20033;-58
2021/12/31 04:58:50;;;;;;;89.57;49.67;;;154.40;2252.80;;;;;;5075370;28;20032;-57
2021/12/31 05:01:20;;;;;;;87.30;50.03;;;154.40;2252.80;;;;;;5075281;28;20028;-54
2021/12/31 05:03:46;;;;;;;83.18;46.78;;;154.40;2252.80;;;;;;5075206;28;20044;-58
2021/12/31 05:06:12;;;;;;;82.72;47.13;;;154.40;2252.80;;;;;;5075147;28;20020;-53
2021/12/31 05:08:38;;;;;;;78.22;44.85;;;154.40;2252.80;;;;;;5075101;28;20078;-53
2021/12/31 05:11:04;;;;;;;79.18;44.67;;;154.40;2252.80;;;;;;5075373;28;20033;-54
2021/12/31 05:13:30;;;;;;;75.57;44.35;;;154.30;2252.80;;;;;;5075387;28;20420;-54
2021/12/31 05:16:01;;;;;;;85.45;46.00;;;154.30;2252.80;;;;;;5074982;28;20107;-54
2021/12/31 05:18:27;;;;;;;78.38;44.75;;;154.30;2252.80;;;;;;5074911;28;20040;-54
2021/12/31 05:20:53;;;;;;;86.00;47.53;;;154.30;2252.80;;;;;;5074937;28;20103;-54
2021/12/31 05:23:19;;;;;;;79.47;44.95;;;154.30;2252.80;;;;;;5074783;28;20116;-54
2021/12/31 05:25:46;;;;;;;85.70;47.03;;;154.30;2252.80;;;;;;5074829;28;20033;-54
2021/12/31 05:28:11;;;;;;;92.28;49.67;;;154.30;2252.80;;;;;;5074810;28;20028;-54
2021/12/31 05:30:37;;;;;;;85.78;48.83;;;154.20;2252.80;;;;;;5075449;28;20101;-54
2021/12/31 05:33:03;;;;;;;83.13;46.78;;;154.20;2252.80;;;;;;5074996;28;20465;-54
2021/12/31 05:35:29;;;;;;;97.85;51.33;;;154.20;2252.80;;;;;;5073361;28;20036;-54
2021/12/31 05:37:56;;;;;;;97.85;48.33;;;154.20;2252.80;;;;;;5074562;28;20028;-54
2021/12/31 05:40:23;;;;;;;86.47;47.30;;;154.20;2252.80;;;;;;5074473;28;20029;-54
2021/12/31 05:42:49;;;;;;;89.05;47.40;;;154.20;2252.80;;;;;;5074418;28;20020;-54
2021/12/31 05:45:15;;;;;;;86.20;47.42;;;154.20;2252.80;;;;;;5074614;28;20492;-54
2021/12/31 05:47:41;;;;;;;90.10;48.97;;;154.10;2252.80;;;;;;5073911;28;20029;-63
2021/12/31 05:50:18;;;;;;;81.88;47.33;;;154.10;2252.80;;;;;;5074653;28;20035;-54
2021/12/31 05:52:46;;;;;;;82.78;46.67;;;154.10;2252.80;;;;;;5074271;28;20021;-63
2021/12/31 05:55:12;;;;;;;81.85;45.90;;;154.00;2252.80;;;;;;5074244;28;20021;-54
2021/12/31 05:57:38;;;;;;;73.93;42.78;;;154.00;2252.80;;;;;;5074208;28;20376;-63
2021/12/31 06:00:05;;;;;;;70.18;42.72;;;154.10;2252.80;;;;;;5074459;28;20025;-64
2021/12/31 06:02:31;;;;;;;76.97;43.10;;;154.00;2252.80;;;;;;5073864;28;20056;-54
2021/12/31 06:04:57;;;;;;;77.38;41.65;;;154.10;2252.80;;;;;;5073989;28;20067;-54
2021/12/31 06:07:22;;;;;;;82.60;45.40;;;154.00;2252.80;;;;;;5074290;28;20487;-54
2021/12/31 06:09:48;;;;;;;71.57;42.70;;;154.00;2252.80;;;;;;5074228;28;20051;-54
2021/12/31 06:12:14;;;;;;;72.95;45.92;;;154.00;2252.80;;;;;;5073934;28;20094;-53
2021/12/31 06:14:40;;;;;;;78.80;44.35;;;154.00;2252.80;;;;;;5073860;28;20021;-61
2021/12/31 06:17:08;;;;;;;77.72;44.47;;;154.00;2252.80;;;;;;5074078;28;20384;-54
2021/12/31 06:19:35;;;;;;;81.03;46.55;;;154.00;2252.80;;;;;;5073780;28;20024;-54
2021/12/31 06:22:01;;;;;;;83.18;46.40;;;154.00;2252.80;;;;;;5073760;28;20028;-54
2021/12/31 06:24:27;;;;;;;80.50;46.67;;;154.00;2252.80;;;;;;5073578;28;20085;-55
2021/12/31 06:26:54;;;;;;;81.17;46.87;;;154.00;2252.80;;;;;;5073625;28;20028;-54
2021/12/31 06:29:20;;;;;;;87.20;48.92;;;154.00;2252.80;;;;;;5073598;28;20040;-54
2021/12/31 06:31:46;;;;;;;92.68;50.53;;;154.00;2252.80;;;;;;5073115;28;20532;-54
2021/12/31 06:34:11;;;;;;;89.63;51.30;;;154.00;2252.80;;;;;;5073813;28;20389;-63
2021/12/31 06:36:37;;;;;;;91.03;51.70;;;154.00;2252.80;;;;;;5073469;28;20462;-54
2021/12/31 06:39:04;;;;;;;91.30;52.08;;;154.10;2252.80;;;;;;5073677;28;20440;-55
2021/12/31 06:41:30;;;;;;;86.72;51.97;;;154.20;2252.80;;;;;;5073359;28;20028;-65
2021/12/31 06:43:56;;;;;;;85.18;49.97;;;154.20;2252.80;;;;;;5073271;28;20043;-57
2021/12/31 06:46:22;;;;;;;87.70;51.45;;;154.20;2252.80;;;;;;5073430;28;20024;-63
2021/12/31 06:48:48;;;;;;;81.05;48.17;;;154.20;2252.80;;;;;;5073302;28;20408;-54
2021/12/31 06:51:14;;;;;;;82.63;47.22;;;154.30;2252.80;;;;;;5073571;28;20432;-56
2021/12/31 06:53:40;;;;;;;81.72;48.22;;;154.30;2252.80;;;;;;5073177;28;20058;-55
2021/12/31 06:56:06;;;;;;;76.28;46.80;;;154.30;2252.80;;;;;;5073192;28;20055;-57
2021/12/31 06:58:33;;;;;;;81.60;47.65;;;154.30;2252.80;;;;;;5071128;28;20466;-64
2021/12/31 07:00:58;;;;;;;78.70;48.10;;;154.30;2252.80;;;;;;5073419;28;20107;-54
2021/12/31 07:03:24;;;;;;;77.60;47.55;;;154.30;2252.80;;;;;;5073163;28;20545;-62
2021/12/31 07:05:50;;;;;;;74.82;45.13;;;154.30;2252.80;;;;;;5073163;28;20028;-62
2021/12/31 07:08:16;;;;;;;79.13;48.40;;;154.30;2252.80;;;;;;5073075;28;20082;-62
2021/12/31 07:10:42;;;;;;;79.32;46.17;;;154.30;2252.80;;;;;;5073075;28;20113;-65
2021/12/31 07:13:11;;;;;;;76.15;45.92;;;154.30;2252.80;;;;;;5073255;28;20024;-54
2021/12/31 07:15:45;;;;;;;79.25;47.95;;;154.40;2252.80;;;;;;5073181;28;20417;-54
2021/12/31 07:18:11;;;;;;;76.70;47.63;;;154.40;2252.80;;;;;;5073232;28;20017;-54
2021/12/31 07:20:38;;;;;;;83.15;51.15;;;154.50;2252.80;;;;;;5073414;28;20025;-64
2021/12/31 07:23:09;;;;;;;82.78;52.20;;;154.50;2252.80;;;;;;5073192;28;20103;-65
2021/12/31 07:25:36;;;;;;;90.20;52.20;;;154.50;2252.80;;;;;;5073305;28;20543;-54
2021/12/31 07:28:02;;;;;;;85.93;50.63;;;154.50;2252.80;;;;;;5073262;28;20021;-54
2021/12/31 07:30:29;;;;;;;85.55;51.05;;;154.50;2252.80;;;;;;5072874;28;20091;-62
2021/12/31 07:32:55;;;;;;;87.85;52.50;;;179.20;2252.80;;;;;;5072927;28;20056;-57
2021/12/31 07:35:22;;;;;;;92.63;53.30;;;154.50;2252.80;;;;;;5068426;28;20025;-54
2021/12/31 07:37:48;;;;;;;88.95;51.83;;;179.20;2252.80;;;;;;5071906;28;20025;-55
2021/12/31 07:40:23;;;;;;;91.95;53.92;;;179.20;2252.80;;;;;;5072819;28;20017;-54
2021/12/31 07:42:49;;;;;;;97.97;55.67;;;179.20;2252.80;;;;;;5072655;28;20024;-54
2021/12/31 07:45:15;;;;;;;94.97;54.42;;;179.20;2252.80;;;;;;5072481;28;20040;-54
2021/12/31 07:47:41;;;;;;;95.60;56.25;;;179.30;2252.80;;;;;;5072665;28;20024;-54
2021/12/31 07:50:07;;;;;;;98.57;57.88;;;179.20;2252.80;;;;;;5072406;28;20035;-54
2021/12/31 07:52:33;;;;;;;101.00;64.13;;;179.20;2252.80;;;;;;5072438;28;20099;-54
2021/12/31 07:54:59;;;;;;;127.07;78.40;;;154.50;2252.80;;;;;;5071106;28;20056;-54
2021/12/31 07:57:25;;;;;;;99.72;62.15;;;179.20;2252.80;;;;;;5072653;28;20025;-54
2021/12/31 07:59:51;;;;;;;91.05;56.63;;;179.20;2252.80;;;;;;5072806;28;20505;-54
2021/12/31 08:02:17;;;;;;;104.97;61.08;;;179.40;2252.80;;;;;;5072991;28;20021;-53
2021/12/31 08:04:42;;;;;;;96.68;59.30;;;179.50;2252.80;;;;;;5072876;28;20037;-54
2021/12/31 08:07:08;;;;;;;87.88;57.63;;;179.60;2252.80;;;;;;5072666;28;20025;-53
2021/12/31 08:09:34;;;;;;;93.03;57.50;;;179.60;2252.80;;;;;;5073859;28;20024;-53
2021/12/31 08:12:00;;;;;;;86.30;55.97;;;179.70;2252.80;;;;;;5076256;28;20024;-54
2021/12/31 08:14:26;;;;;;;92.10;57.60;;;179.80;2252.80;;;;;;5076246;28;20034;-53
2021/12/31 08:16:52;;;;;;;98.20;61.70;;;179.80;2252.80;;;;;;5076446;28;20098;-53
2021/12/31 08:19:18;;;;;;;100.07;64.15;;;179.90;2252.80;;;;;;5076061;28;20381;-54
2021/12/31 08:21:43;;;;;;;97.05;60.30;;;179.90;2252.80;;;;;;5076394;28;20020;-53
2021/12/31 08:24:09;;;;;;;91.55;57.03;;;179.90;2252.80;;;;;;5076191;28;20477;-55
2021/12/31 08:26:35;;;;;;;89.15;56.63;;;180.00;2252.80;;;;;;5071728;28;20102;-56
2021/12/31 08:29:01;;;;;;;87.82;56.30;;;180.00;2252.80;;;;;;5075871;28;20104;-53
2021/12/31 08:31:27;;;;;;;90.70;56.83;;;180.10;2252.80;;;;;;5075312;28;20044;-54
2021/12/31 08:33:53;;;;;;;84.45;55.35;;;204.80;2252.80;;;;;;5074919;28;20027;-54
2021/12/31 08:36:18;;;;;;;85.70;54.90;;;205.10;2252.80;;;;;;5075565;28;20028;-53
2021/12/31 08:38:50;;;;;;;80.30;51.92;;;205.10;2252.80;;;;;;5075510;28;20082;-54
2021/12/31 08:41:16;;;;;;;84.15;54.15;;;205.20;2252.80;;;;;;5075867;28;20036;-54
2021/12/31 08:43:42;;;;;;;74.93;50.25;;;205.40;2252.80;;;;;;5074125;28;20143;-65
2021/12/31 08:46:07;;;;;;;74.35;49.33;;;205.60;2252.80;;;;;;5075630;28;20073;-57
2021/12/31 08:48:36;;;;;;;76.68;50.33;;;205.60;2252.80;;;;;;5075252;28;20028;-56
2021/12/31 08:51:04;;;;;;;82.75;54.28;;;205.70;2252.80;;;;;;5075410;28;20031;-54
2021/12/31 08:53:30;;;;;;;84.50;53.28;;;230.40;2252.80;;;;;;5075259;28;20052;-65
2021/12/31 08:55:56;;;;;;;77.65;50.33;;;230.60;2252.80;;;;;;5075264;28;20060;-55
2021/12/31 08:58:22;;;;;;;67.70;46.90;;;230.60;2252.80;;;;;;5075232;28;20366;-64
2021/12/31 09:00:47;;;;;;;76.30;49.88;;;230.70;2252.80;;;;;;5075405;28;20052;-54
2021/12/31 09:03:13;;;;;;;69.45;46.00;;;230.70;2252.80;;;;;;5075001;28;20039;-59
2021/12/31 09:05:39;;;;;;;72.63;48.10;;;230.80;2252.80;;;;;;5075205;28;20042;-55
2021/12/31 09:08:05;;;;;;;64.95;44.55;;;230.80;2252.80;;;;;;5075470;28;20062;-54
2021/12/31 09:10:31;;;;;;;76.30;49.00;;;230.80;2252.80;;;;;;5073950;28;20046;-57
2021/12/31 09:12:57;;;;;;;72.78;47.50;;;230.80;2252.80;;;;;;5075421;28;20033;-55
2021/12/31 09:15:23;;;;;;;74.20;48.28;;;230.90;2252.80;;;;;;5075003;28;20059;-74
2021/12/31 09:17:49;;;;;;;72.30;49.92;;;231.00;2252.80;;;;;;5074521;28;20419;-54
2021/12/31 09:20:15;;;;;;;70.22;45.97;;;231.10;2252.80;;;;;;5073497;28;20031;-55
2021/12/31 09:22:41;;;;;;;80.43;50.30;;;231.10;2252.80;;;;;;5072442;28;20025;-54
2021/12/31 09:25:07;;;;;;;77.90;49.90;;;231.20;2252.80;;;;;;5073567;28;20139;-57
2021/12/31 09:27:33;;;;;;;78.35;49.92;;;231.30;2252.80;;;;;;5074474;28;20056;-55
2021/12/31 09:29:59;;;;;;;72.03;49.38;;;231.30;2252.80;;;;;;5074955;28;20050;-55
2021/12/31 09:32:26;;;;;;;72.38;48.75;;;231.30;2252.80;;;;;;5074544;28;20553;-76
2021/12/31 09:34:52;;;;;;;70.53;48.22;;;231.20;2252.80;;;;;;5074950;28;20405;-75
2021/12/31 09:37:18;;;;;;;64.72;44.25;;;231.20;2252.80;;;;;;5074810;28;20048;-55
2021/12/31 09:39:44;;;;;;;64.40;43.95;;;256.00;2252.80;;;;;;5074865;28;20477;-55
2021/12/31 09:42:10;;;;;;;63.85;45.97;;;256.00;2252.80;;;;;;5074388;28;20107;-75
2021/12/31 09:44:37;;;;;;;65.85;44.40;;;256.20;2252.80;;;;;;5074139;28;20119;-55
2021/12/31 09:47:12;;;;;;;60.95;43.40;;;256.30;2252.80;;;;;;5074260;28;20016;-55
2021/12/31 09:49:38;;;;;;;59.50;42.13;;;256.30;2252.80;;;;;;5075030;28;20085;-55
2021/12/31 09:52:08;;;;;;;57.05;37.97;;;256.40;2252.80;;;;;;5074164;28;20027;-75
2021/12/31 09:54:34;;;;;;;59.92;41.75;;;256.40;2252.80;;;;;;5072565;28;20052;-60
2021/12/31 09:57:02;;;;;;;56.85;41.05;;;256.40;2252.80;;;;;;5074072;28;20044;-55
2021/12/31 09:59:28;;;;;;;61.17;42.55;;;256.40;2252.80;;;;;;5073801;28;20028;-68
2021/12/31 10:01:56;;;;;;;61.80;42.55;;;256.40;2252.80;;;;;;5073857;28;20020;-57
2021/12/31 10:04:22;;;;;;;61.80;42.17;;;256.40;2252.80;;;;;;5070175;28;20500;-55
2021/12/31 10:07:12;;;;;;;54.42;38.25;;;256.40;2252.80;;;;;;5073535;28;20024;-55
2021/12/31 10:09:43;;;;;;;66.68;42.42;;;256.50;2252.80;;;;;;5073873;28;20047;-70
2021/12/31 10:12:09;;;;;;;55.17;36.65;;;256.60;2252.80;;;;;;5073493;28;20029;-73
2021/12/31 10:14:37;;;;;;;58.72;40.72;;;256.70;2252.80;;;;;;5073739;28;20020;-75
2021/12/31 10:17:05;;;;;;;58.45;39.60;;;256.80;2252.80;;;;;;5073663;28;20024;-61
2021/12/31 10:19:31;;;;;;;57.10;39.97;;;281.60;2278.40;;;;;;5072865;28;20064;-56
2021/12/31 10:21:58;;;;;;;55.55;39.78;;;281.60;2278.40;;;;;;5073386;28;20094;-71
2021/12/31 10:24:25;;;;;;;53.13;36.67;;;281.70;2278.40;;;;;;5073011;28;20036;-76
2021/12/31 10:26:53;;;;;;;50.80;36.88;;;281.80;2278.40;;;;;;5073660;28;20415;-74
2021/12/31 10:29:21;;;;;;;64.68;42.25;;;281.90;2278.40;;;;;;5073301;28;20483;-55
2021/12/31 10:31:52;;;;;;;51.33;36.13;;;282.00;2278.40;;;;;;5073118;28;20076;-56
2021/12/31 10:34:33;;;;;;;47.70;34.65;;;282.20;2278.40;;;;;;5073037;28;20028;-73
2021/12/31 10:37:02;;;;;;;49.33;34.05;;;282.50;2278.40;;;;;;5073575;28;20112;-56
2021/12/31 10:39:32;;;;;;;71.03;46.20;;;282.50;2278.40;;;;;;5073556;28;20025;-56
2021/12/31 10:42:09;;;;;;;60.55;42.47;;;282.50;2278.40;;;;;;5073015;28;20029;-65
2021/12/31 10:44:45;;;;;;;59.03;39.97;;;282.50;2278.40;;;;;;5073129;28;20047;-75
2021/12/31 10:47:14;;;;;;;75.75;52.40;;;282.50;2278.40;;;;;;5073436;28;20453;-64
2021/12/31 10:50:04;;;;;;;66.20;45.47;;;282.50;2278.40;;;;;;5073032;28;20028;-75
2021/12/31 10:52:42;;;;;;;49.08;33.95;;;307.30;2304.00;;;;;;5072829;28;20567;-56
2021/12/31 10:57:49;;;;;;;55.75;40.35;;;307.30;2304.00;;;;;;5073319;28;20424;-75
2021/12/31 11:00:16;;;;;;;65.40;47.35;;;307.30;2304.00;;;;;;5072990;28;20031;-56
2021/12/31 11:02:43;;;;;;;75.60;53.22;;;307.30;2304.00;;;;;;5073178;28;20028;-55
2021/12/31 11:05:10;;;;;;;70.70;53.97;;;307.20;2304.00;;;;;;5072782;28;20116;-59
2021/12/31 11:07:39;;;;;;;75.50;54.97;;;282.50;2278.40;;;;;;5072886;28;20025;-55
2021/12/31 11:10:06;;;;;;;77.82;57.60;;;282.50;2278.40;;;;;;5072824;28;20020;-56
2021/12/31 11:12:33;;;;;;;82.93;57.72;;;282.50;2278.40;;;;;;5070793;28;20051;-55
2021/12/31 11:14:58;;;;;;;66.93;47.20;;;282.50;2278.40;;;;;;5072719;28;20032;-75
2021/12/31 11:17:24;;;;;;;77.78;54.17;;;307.20;2304.00;;;;;;5072981;28;20120;-75
2021/12/31 11:19:51;;;;;;;71.07;48.47;;;307.40;2304.00;;;;;;5072635;28;20457;-59
2021/12/31 11:22:21;;;;;;;116.13;80.72;;;307.70;2304.00;;;;;;5072545;28;20067;-57
2021/12/31 11:24:47;;;;;;;117.60;79.15;;;307.90;2304.00;;;;;;5072734;28;20473;-58
2021/12/31 11:27:30;;;;;;;108.70;77.60;;;308.10;2304.00;;;;;;5072925;28;20025;-58
2021/12/31 11:29:58;;;;;;;76.35;53.42;;;332.80;2329.60;;;;;;5072870;28;20031;-57
2021/12/31 11:32:47;;;;;;;89.68;62.80;;;308.10;2304.00;;;;;;5070907;28;20048;-58
2021/12/31 11:35:45;;;;;;;88.55;58.72;;;332.80;2329.60;;;;;;5053051;28;20024;-72
2021/12/31 11:38:26;;;;;;;71.15;52.55;;;332.80;2329.60;;;;;;5072648;28;20051;-59
2021/12/31 11:41:07;;;;;;;52.42;37.13;;;333.00;2329.60;;;;;;5072800;28;20107;-58
2021/12/31 11:43:35;;;;;;;59.28;41.50;;;332.90;2329.60;;;;;;5070902;28;20017;-58
2021/12/31 11:46:14;;;;;;;61.55;40.47;;;308.10;2304.00;;;;;;5073602;28;20111;-58
2021/12/31 11:48:49;;;;;;;53.60;37.83;;;308.00;2304.00;;;;;;5076043;28;20031;-58
2021/12/31 11:51:36;;;;;;;70.38;40.65;;;307.80;2304.00;;;;;;5075441;28;20396;-57
2021/12/31 11:54:03;;;;;;;63.83;42.75;;;307.70;2304.00;;;;;;5076532;28;20024;-72
2021/12/31 11:56:47;;;;;;;60.58;42.00;;;307.90;2304.00;;;;;;5075609;28;20162;-72
2021/12/31 11:59:13;;;;;;;;;;;308.10;2304.00;;;;;;5076448;28;20123;-60
2021/12/31 12:01:53;;;;;;;62.03;39.70;;;332.80;2329.60;;;;;;5076241;28;20006;-57
2021/12/31 12:04:28;;;;;;;56.28;37.17;;;332.90;2329.60;;;;;;5075572;28;20028;-58
2021/12/31 12:06:55;;;;;;;49.40;35.47;;;332.90;2329.60;;;;;;5076176;28;20021;-58
2021/12/31 12:09:22;;;;;;;53.40;34.63;;;332.80;2329.60;;;;;;5075886;28;20081;-58